createdAt,value
2019-02-27T08:28:28.745Z,44.31
2019-02-27T08:29:28.710Z,47.98
2019-02-27T08:30:28.703Z,49.68
2019-02-27T08:31:28.891Z,51.93
2019-02-27T08:32:28.679Z,54.02
2019-02-27T08:33:28.678Z,55.21
2019-02-27T08:34:28.660Z,56.82
2019-02-27T08:35:28.647Z,58.91
2019-02-27T08:36:28.642Z,59.65
2019-02-27T08:37:28.626Z,60.94
2019-02-27T08:38:28.627Z,61.07
2019-02-27T08:39:28.606Z,61.80
2019-02-27T08:40:28.598Z,62.13
2019-02-27T08:41:29.212Z,62.75
2019-02-27T08:42:28.583Z,63.57
2019-02-27T08:43:30.436Z,63.71
2019-02-27T08:44:28.554Z,63.92
2019-02-27T08:45:28.542Z,63.95
2019-02-27T08:46:28.540Z,64.98
2019-02-27T08:47:28.526Z,64.36
2019-02-27T08:48:28.526Z,64.98
2019-02-27T08:49:28.499Z,65.11
2019-02-27T08:50:29.262Z,65.49
2019-02-27T08:51:28.478Z,65.49
2019-02-27T08:52:28.473Z,65.83
2019-02-27T08:53:28.474Z,66.01
2019-02-27T08:54:32.300Z,66.21
2019-02-27T08:55:28.442Z,65.94
2019-02-27T08:56:29.973Z,65.91
2019-02-27T08:57:28.428Z,66.11
2019-02-27T08:58:29.671Z,65.70
2019-02-27T08:59:28.404Z,66.42
2019-02-27T09:00:28.384Z,66.31
2019-02-27T09:01:28.374Z,66.31
2019-02-27T09:02:29.397Z,66.01
2019-02-27T09:03:28.379Z,65.83
2019-02-27T09:04:28.393Z,65.80
2019-02-27T09:05:28.338Z,66.11
2019-02-27T09:06:28.338Z,65.91
2019-02-27T09:07:28.321Z,66.42
2019-02-27T09:08:31.387Z,66.11
2019-02-27T09:09:28.289Z,66.31
2019-02-27T09:10:30.621Z,65.80
2019-02-27T09:11:28.295Z,66.52
2019-02-27T09:12:28.259Z,65.80
2019-02-27T09:13:28.314Z,66.52
2019-02-27T09:14:28.239Z,66.42
2019-02-27T09:15:28.242Z,66.39
2019-02-27T09:16:28.222Z,66.18
2019-02-27T09:17:28.439Z,65.88
2019-02-27T09:20:54.145Z,66.60
2019-02-27T09:21:53.253Z,66.49
2019-02-27T09:22:53.247Z,66.05
2019-02-27T09:23:53.244Z,65.84
2019-02-27T09:24:53.221Z,65.84
2019-02-27T09:25:57.266Z,65.74
2019-02-27T09:26:53.213Z,64.71
2019-02-27T09:27:53.189Z,65.12
2019-02-27T09:28:53.230Z,64.68
2019-02-27T09:29:54.756Z,65.09
2019-02-27T09:30:53.163Z,64.89
2019-02-27T09:31:53.146Z,65.19
2019-02-27T09:32:53.138Z,65.30
2019-02-27T09:33:53.893Z,64.75
2019-02-27T09:34:53.285Z,64.75
2019-02-27T09:36:01.436Z,63.82
2019-02-27T09:36:53.117Z,64.24
2019-02-27T09:37:53.102Z,64.75
2019-02-27T09:38:57.271Z,63.93
2019-02-27T09:39:53.112Z,64.03
2019-02-27T09:40:53.133Z,64.65
2019-02-27T09:42:04.391Z,63.93
2019-02-27T09:42:53.927Z,64.11
2019-02-27T09:43:53.057Z,63.49
2019-02-27T09:44:53.008Z,63.90
2019-02-27T09:45:52.999Z,64.31
2019-02-27T09:46:53.167Z,63.69
2019-02-27T09:47:52.977Z,64.31
2019-02-27T09:48:52.967Z,63.79
2019-02-27T09:49:52.967Z,63.56
2019-02-27T09:50:52.946Z,63.76
2019-02-27T09:51:56.045Z,63.56
2019-02-27T09:52:52.925Z,63.56
2019-02-27T09:53:52.912Z,63.15
2019-02-27T09:54:54.800Z,63.02
2019-02-27T09:55:54.273Z,62.71
2019-02-27T09:56:52.911Z,62.71
2019-02-27T09:57:52.915Z,62.40
2019-02-27T09:58:52.865Z,62.40
2019-02-27T09:59:53.668Z,62.06
2019-02-27T10:00:52.839Z,62.58
2019-02-27T10:01:52.831Z,62.92
2019-02-27T10:02:52.815Z,62.48
2019-02-27T10:03:55.270Z,62.27
2019-02-27T10:04:52.833Z,62.27
2019-02-27T10:05:52.793Z,62.34
2019-02-27T10:06:52.780Z,62.04
2019-02-27T10:07:52.783Z,61.83
2019-02-27T10:08:52.752Z,61.42
2019-02-27T10:09:52.774Z,61.60
2019-02-27T10:10:52.730Z,61.08
2019-02-27T10:11:53.196Z,60.88
2019-02-27T10:12:52.716Z,60.85
2019-02-27T10:13:52.707Z,61.29
2019-02-27T10:14:52.715Z,61.36
2019-02-27T10:15:52.678Z,61.36
2019-02-27T10:16:52.671Z,61.36
2019-02-27T10:17:52.669Z,59.69
2019-02-27T10:18:55.601Z,59.92
2019-02-27T10:19:52.675Z,60.03
2019-02-27T10:20:52.632Z,60.51
2019-02-27T10:21:52.618Z,60.41
2019-02-27T10:22:53.220Z,59.80
2019-02-27T10:23:52.618Z,59.36
2019-02-27T10:24:52.613Z,57.82
2019-02-27T10:25:52.587Z,58.03
2019-02-27T10:26:53.538Z,57.10
2019-02-27T10:27:52.560Z,56.97
2019-02-27T10:28:52.541Z,56.35
2019-02-27T10:29:52.550Z,55.41
2019-02-27T10:30:52.519Z,55.51
2019-02-27T10:31:52.507Z,53.97
2019-02-27T10:32:52.499Z,54.90
2019-02-27T10:33:52.488Z,54.46
2019-02-27T10:34:53.552Z,54.46
2019-02-27T10:35:52.491Z,54.16
2019-02-27T10:36:52.517Z,54.67
2019-02-27T10:37:54.421Z,53.62
2019-02-27T10:38:52.433Z,53.21
2019-02-27T10:39:52.445Z,52.26
2019-02-27T10:40:52.413Z,52.87
2019-02-27T10:41:52.405Z,51.86
2019-02-27T10:42:52.390Z,50.42
2019-02-27T10:43:53.916Z,50.42
2019-02-27T10:44:52.402Z,49.30
2019-02-27T10:45:52.358Z,49.17
2019-02-27T10:46:52.358Z,49.05
2019-02-27T10:47:52.344Z,48.86
2019-02-27T10:48:52.340Z,48.43
2019-02-27T10:49:52.329Z,48.23
2019-02-27T10:50:52.303Z,47.20
2019-02-27T10:51:52.297Z,45.57
2019-02-27T10:52:52.282Z,44.12
2019-02-27T10:53:52.280Z,43.41
2019-02-27T10:54:52.280Z,44.02
2019-02-27T10:55:52.253Z,44.71
2019-02-27T10:56:52.240Z,44.61
2019-02-27T10:57:52.231Z,44.71
2019-02-27T10:58:52.220Z,44.20
2019-02-27T10:59:52.288Z,44.90
2019-02-27T11:00:52.198Z,45.72
2019-02-27T11:01:52.186Z,45.51
2019-02-27T11:02:52.619Z,45.51
2019-02-27T11:03:52.164Z,44.49
2019-02-27T11:04:52.178Z,44.57
2019-02-27T11:05:55.361Z,44.46
2019-02-27T11:06:52.168Z,43.85
2019-02-27T11:07:52.990Z,43.32
2019-02-27T11:08:52.111Z,44.34
2019-02-27T11:09:52.108Z,44.34
2019-02-27T11:10:52.107Z,45.14
2019-02-27T11:11:53.931Z,44.53
2019-02-27T11:12:52.115Z,43.41
2019-02-27T11:13:55.325Z,42.59
2019-02-27T11:14:52.049Z,41.75
2019-02-27T11:15:52.057Z,41.55
2019-02-27T11:16:52.029Z,42.16
2019-02-27T11:17:52.051Z,42.06
2019-02-27T11:18:52.007Z,41.53
2019-02-27T11:19:51.996Z,41.23
2019-02-27T11:20:52.005Z,41.74
2019-02-27T11:21:51.971Z,41.33
2019-02-27T11:22:51.963Z,41.00
2019-02-27T11:23:51.956Z,41.31
2019-02-27T11:24:52.523Z,39.78
2019-02-27T11:25:56.698Z,39.66
2019-02-27T11:26:51.922Z,39.56
2019-02-27T11:27:51.907Z,39.24
2019-02-27T11:28:51.899Z,39.15
2019-02-27T11:29:51.905Z,40.36
2019-02-27T11:30:51.894Z,40.46
2019-02-27T11:31:51.867Z,37.00
2019-02-27T11:32:56.785Z,36.99
2019-02-27T11:33:52.848Z,37.90
2019-02-27T11:34:51.832Z,37.27
2019-02-27T11:35:51.840Z,37.07
2019-02-27T11:36:51.845Z,37.17
2019-02-27T11:37:51.827Z,36.16
2019-02-27T11:38:51.798Z,36.24
2019-02-27T11:39:51.778Z,35.73
2019-02-27T11:40:51.784Z,34.00
2019-02-27T11:41:51.761Z,34.91
2019-02-27T11:42:51.747Z,35.72
2019-02-27T11:43:52.736Z,36.32
2019-02-27T11:44:51.739Z,36.22
2019-02-27T11:45:51.729Z,35.70
2019-02-27T11:46:58.688Z,36.30
2019-02-27T11:47:52.697Z,34.67
2019-02-27T11:48:51.695Z,33.45
2019-02-27T11:49:51.691Z,33.75
2019-02-27T11:50:51.683Z,33.45
2019-02-27T11:51:53.222Z,32.82
2019-02-27T11:52:51.651Z,30.79
2019-02-27T11:53:51.629Z,30.79
2019-02-27T11:54:51.618Z,31.70
2019-02-27T11:55:51.617Z,30.89
2019-02-27T11:56:56.095Z,31.07
2019-02-27T11:57:52.590Z,31.18
2019-02-27T11:58:51.575Z,31.46
2019-02-27T11:59:51.568Z,31.65
2019-02-27T12:00:51.578Z,31.65
2019-02-27T12:01:55.354Z,30.93
2019-02-27T12:02:51.531Z,31.34
2019-02-27T12:03:51.531Z,30.83
2019-02-27T12:04:55.281Z,30.21
2019-02-27T12:05:52.509Z,29.19
2019-02-27T12:06:51.487Z,29.59
2019-02-27T12:07:51.918Z,29.47
2019-02-27T12:08:51.466Z,29.44
2019-02-27T12:09:51.455Z,28.63
2019-02-27T12:10:51.456Z,28.70
2019-02-27T12:11:51.437Z,26.66
2019-02-27T12:12:51.423Z,24.39
2019-02-27T12:13:51.414Z,21.81
2019-02-27T12:14:51.408Z,19.15
2019-02-27T12:15:51.406Z,17.79
2019-02-27T12:16:51.801Z,16.74
2019-02-27T12:17:51.378Z,15.01
2019-02-27T12:18:51.360Z,15.17
2019-02-27T12:19:51.348Z,13.17
2019-02-27T12:20:53.947Z,12.94
2019-02-27T12:21:51.327Z,11.64
2019-02-27T12:22:51.318Z,11.43
2019-02-27T12:23:51.307Z,10.24
2019-02-27T12:24:52.914Z,10.70
2019-02-27T12:25:51.290Z,10.38
2019-02-27T12:26:51.289Z,9.48
2019-02-27T12:27:51.265Z,9.75
2019-02-27T12:28:52.715Z,8.58
2019-02-27T12:29:51.261Z,8.07
2019-02-27T12:30:51.264Z,7.30
2019-02-27T12:31:51.236Z,8.25
2019-02-27T12:32:55.703Z,6.71
2019-02-27T12:33:52.204Z,6.80
2019-02-27T12:34:51.196Z,7.08
2019-02-27T12:35:51.189Z,7.07
2019-02-27T12:36:52.686Z,7.07
2019-02-27T12:37:51.176Z,6.68
2019-02-27T12:38:51.154Z,7.54
2019-02-27T12:39:51.146Z,7.16
2019-02-27T12:40:51.136Z,6.40
2019-02-27T12:41:51.136Z,6.49
2019-02-27T12:42:51.118Z,6.68
2019-02-27T12:43:52.720Z,6.39
2019-02-27T12:44:53.914Z,6.20
2019-02-27T12:45:51.089Z,5.91
2019-02-27T12:46:51.128Z,6.38
2019-02-27T12:47:51.071Z,5.24
2019-02-27T12:48:51.068Z,5.71
2019-02-27T12:49:51.598Z,5.33
2019-02-27T12:50:51.110Z,5.24
2019-02-27T12:51:51.123Z,5.14
2019-02-27T12:52:51.032Z,5.05
2019-02-27T12:53:54.410Z,5.62
2019-02-27T12:54:51.007Z,5.24
2019-02-27T12:55:50.997Z,4.95
2019-02-27T12:56:51.048Z,4.76
2019-02-27T12:57:52.394Z,4.00
2019-02-27T12:58:50.972Z,5.62
2019-02-27T12:59:50.987Z,5.51
2019-02-27T13:00:50.958Z,4.66
2019-02-27T13:01:51.806Z,4.85
2019-02-27T13:02:50.991Z,4.94
2019-02-27T13:03:51.161Z,5.04
2019-02-27T13:04:52.651Z,4.75
2019-02-27T13:05:50.940Z,5.61
2019-02-27T13:06:50.908Z,4.37
2019-02-27T13:07:51.164Z,4.17
2019-02-27T13:08:52.891Z,4.17
2019-02-27T13:09:50.904Z,4.27
2019-02-27T13:10:50.962Z,4.27
2019-02-27T13:11:50.902Z,4.08
2019-02-27T13:12:51.856Z,4.27
2019-02-27T13:13:50.898Z,3.79
2019-02-27T13:14:50.936Z,4.17
2019-02-27T13:15:50.920Z,4.36
2019-02-27T13:16:50.905Z,3.22
2019-02-27T13:17:56.187Z,3.98
2019-02-27T13:18:51.835Z,3.70
2019-02-27T13:19:50.858Z,4.17
2019-02-27T13:20:50.800Z,4.65
2019-02-27T13:21:52.321Z,3.70
2019-02-27T13:22:50.795Z,3.89
2019-02-27T13:23:50.774Z,4.17
2019-02-27T13:24:50.951Z,3.60
2019-02-27T13:25:50.771Z,3.60
2019-02-27T13:26:50.754Z,4.64
2019-02-27T13:27:50.753Z,4.17
2019-02-27T13:28:50.735Z,3.89
2019-02-27T13:29:52.203Z,3.99
2019-02-27T13:30:50.786Z,3.70
2019-02-27T13:31:51.505Z,4.65
2019-02-27T13:32:50.711Z,3.61
2019-02-27T13:33:50.689Z,4.17
2019-02-27T13:34:50.684Z,4.64
2019-02-27T13:35:50.670Z,5.12
2019-02-27T13:36:50.663Z,3.79
2019-02-27T13:37:50.669Z,4.55
2019-02-27T13:38:52.201Z,4.36
2019-02-27T13:39:50.631Z,4.27
2019-02-27T13:40:50.621Z,3.80
2019-02-27T13:41:50.758Z,4.55
2019-02-27T13:42:53.341Z,4.46
2019-02-27T13:43:50.600Z,3.70
2019-02-27T13:44:50.591Z,3.70
2019-02-27T13:45:50.584Z,3.61
2019-02-27T13:46:50.579Z,3.89
2019-02-27T13:47:50.582Z,4.46
2019-02-27T13:48:50.562Z,3.80
2019-02-27T13:49:50.553Z,4.08
2019-02-27T13:50:50.546Z,3.80
2019-02-27T13:51:50.541Z,3.42
2019-02-27T13:52:50.809Z,4.27
2019-02-27T13:53:50.524Z,3.79
2019-02-27T13:54:50.516Z,4.27
2019-02-27T13:55:50.509Z,4.64
2019-02-27T13:56:50.501Z,3.60
2019-02-27T13:57:50.507Z,3.50
2019-02-27T13:58:50.488Z,3.98
2019-02-27T13:59:50.480Z,3.70
2019-02-27T14:00:53.630Z,4.36
2019-02-27T14:01:50.472Z,3.98
2019-02-27T14:02:50.469Z,4.65
2019-02-27T14:03:50.451Z,4.46
2019-02-27T14:04:50.450Z,3.98
2019-02-27T14:05:50.436Z,4.55
2019-02-27T14:06:50.430Z,4.17
2019-02-27T14:07:50.439Z,4.55
2019-02-27T14:08:50.414Z,4.74
2019-02-27T14:09:50.406Z,4.83
2019-02-27T14:10:53.248Z,4.26
2019-02-27T14:11:50.392Z,4.36
2019-02-27T14:12:50.404Z,4.55
2019-02-27T14:13:50.379Z,4.27
2019-02-27T14:14:53.316Z,4.74
2019-02-27T14:15:50.394Z,4.46
2019-02-27T14:16:50.354Z,4.27
2019-02-27T14:17:50.359Z,4.93
2019-02-27T14:18:50.663Z,4.17
2019-02-27T14:19:50.333Z,4.17
2019-02-27T14:20:50.328Z,4.56
2019-02-27T14:21:50.359Z,4.19
2019-02-27T14:22:50.321Z,4.76
2019-02-27T14:23:50.305Z,5.05
2019-02-27T14:24:51.943Z,4.95
2019-02-27T14:25:50.289Z,4.85
2019-02-27T14:26:50.287Z,5.62
2019-02-27T14:27:50.284Z,5.62
2019-02-27T14:28:52.261Z,5.72
2019-02-27T14:29:50.258Z,4.57
2019-02-27T14:30:50.250Z,5.62
2019-02-27T14:31:50.246Z,5.62
2019-02-27T14:32:50.250Z,5.15
2019-02-27T14:33:51.149Z,5.24
2019-02-27T14:34:50.218Z,5.14
2019-02-27T14:35:50.217Z,5.33
2019-02-27T14:36:50.205Z,5.43
2019-02-27T14:37:51.151Z,5.62
2019-02-27T14:38:50.190Z,5.62
2019-02-27T14:39:50.186Z,5.62
2019-02-27T14:40:50.170Z,5.62
2019-02-27T14:41:51.377Z,4.95
2019-02-27T14:42:53.991Z,4.86
2019-02-27T14:43:50.150Z,5.24
2019-02-27T14:44:50.137Z,5.05
2019-02-27T14:45:50.903Z,5.54
2019-02-27T14:46:50.122Z,5.06
2019-02-27T14:47:50.115Z,5.06
2019-02-27T14:48:52.418Z,5.74
2019-02-27T14:49:50.097Z,5.83
2019-02-27T14:50:50.088Z,5.36
2019-02-27T14:51:50.080Z,5.27
2019-02-27T14:52:50.184Z,5.56
2019-02-27T14:53:52.680Z,5.37
2019-02-27T14:54:50.054Z,5.09
2019-02-27T14:55:50.046Z,6.25
2019-02-27T14:56:50.039Z,6.55
2019-02-27T14:57:51.031Z,6.84
2019-02-27T14:58:50.040Z,6.95
2019-02-27T14:59:50.010Z,7.04
2019-02-27T15:00:50.002Z,6.48
2019-02-27T15:01:49.995Z,7.25
2019-02-27T15:02:51.865Z,6.97
2019-02-27T15:03:49.987Z,7.46
2019-02-27T15:04:49.970Z,6.68
2019-02-27T15:05:49.972Z,8.04
2019-02-27T15:06:51.230Z,7.08
2019-02-27T15:07:49.948Z,7.67
2019-02-27T15:08:57.700Z,7.86
2019-02-27T15:09:50.923Z,7.86
2019-02-27T15:10:49.924Z,7.37
2019-02-27T15:11:49.907Z,7.96
2019-02-27T15:12:53.917Z,8.17
2019-02-27T15:13:50.906Z,8.07
2019-02-27T15:14:49.874Z,7.98
2019-02-27T15:15:49.864Z,8.18
2019-02-27T15:16:49.933Z,7.79
2019-02-27T15:17:51.203Z,8.77
2019-02-27T15:18:49.847Z,9.17
2019-02-27T15:19:49.833Z,9.37
2019-02-27T15:20:49.817Z,8.98
2019-02-27T15:21:49.808Z,9.47
2019-02-27T15:22:52.537Z,9.67
2019-02-27T15:23:49.802Z,9.39
2019-02-27T15:24:49.778Z,9.49
2019-02-27T15:25:49.770Z,9.99
2019-02-27T15:26:50.695Z,9.80
2019-02-27T15:27:49.752Z,9.60
2019-02-27T15:28:49.756Z,10.58
2019-02-27T15:29:49.731Z,10.29
2019-02-27T15:30:49.734Z,10.49
2019-02-27T15:31:52.224Z,10.49
2019-02-27T15:32:50.700Z,10.69
2019-02-27T15:33:49.712Z,10.89
2019-02-27T15:34:49.681Z,11.09
2019-02-27T15:35:49.674Z,11.78
2019-02-27T15:36:49.666Z,11.79
2019-02-27T15:37:49.654Z,10.91
2019-02-27T15:38:49.657Z,11.59
2019-02-27T15:39:52.070Z,10.81
2019-02-27T15:40:50.629Z,11.79
2019-02-27T15:41:49.616Z,11.90
2019-02-27T15:42:49.601Z,11.90
2019-02-27T15:43:59.701Z,10.82
2019-02-27T15:44:50.587Z,11.81
2019-02-27T15:45:49.575Z,12.60
2019-02-27T15:46:49.574Z,12.01
2019-02-27T15:47:49.552Z,12.30
2019-02-27T15:48:49.552Z,11.42
2019-02-27T15:49:49.534Z,11.72
2019-02-27T15:50:49.528Z,12.32
2019-02-27T15:51:49.510Z,12.32
2019-02-27T15:52:49.501Z,12.02
2019-02-27T15:53:50.021Z,11.92
2019-02-27T15:54:49.480Z,13.01
2019-02-27T15:55:49.473Z,12.72
2019-02-27T15:56:49.463Z,13.01
2019-02-27T15:57:53.674Z,11.54
2019-02-27T15:58:49.451Z,12.92
2019-02-27T15:59:49.433Z,12.92
2019-02-27T16:00:52.626Z,13.02
2019-02-27T16:01:49.410Z,12.83
2019-02-27T16:02:49.414Z,12.93
2019-02-27T16:03:49.412Z,13.34
2019-02-27T16:04:55.142Z,13.34
2019-02-27T16:05:50.389Z,13.44
2019-02-27T16:06:51.194Z,14.14
2019-02-27T16:07:49.713Z,13.65
2019-02-27T16:08:49.431Z,14.04
2019-02-27T16:09:49.364Z,14.04
2019-02-27T16:10:54.940Z,13.76
2019-02-27T16:11:51.543Z,14.35
2019-02-27T16:12:49.358Z,14.65
2019-02-27T16:13:49.370Z,14.86
2019-02-27T16:14:49.287Z,14.86
2019-02-27T16:15:49.272Z,15.17
2019-02-27T16:16:49.256Z,14.97
2019-02-27T16:17:49.244Z,14.98
2019-02-27T16:18:49.499Z,14.78
2019-02-27T16:19:49.237Z,15.48
2019-02-27T16:20:49.793Z,15.39
2019-02-27T16:21:49.202Z,15.19
2019-02-27T16:22:49.191Z,15.78
2019-02-27T16:23:49.193Z,15.79
2019-02-27T16:24:49.183Z,15.40
2019-02-27T16:25:52.914Z,16.00
2019-02-27T16:26:49.150Z,16.10
2019-02-27T16:27:49.139Z,16.00
2019-02-27T16:28:49.634Z,16.10
2019-02-27T16:29:49.130Z,16.51
2019-02-27T16:30:49.109Z,16.10
2019-02-27T16:31:49.099Z,16.01
2019-02-27T16:32:49.993Z,16.61
2019-02-27T16:33:49.078Z,16.82
2019-02-27T16:34:50.362Z,16.91
2019-02-27T16:35:49.063Z,16.93
2019-02-27T16:36:49.045Z,17.73
2019-02-27T16:37:49.037Z,17.03
2019-02-27T16:38:49.027Z,17.33
2019-02-27T16:39:49.029Z,17.83
2019-02-27T16:40:52.010Z,17.94
2019-02-27T16:41:49.021Z,18.33
2019-02-27T16:42:48.982Z,18.63
2019-02-27T16:43:49.131Z,18.74
2019-02-27T16:44:48.976Z,18.04
2019-02-27T16:45:48.956Z,18.74
2019-02-27T16:46:48.940Z,18.54
2019-02-27T16:47:48.932Z,18.25
2019-02-27T16:48:48.918Z,18.15
2019-02-27T16:49:50.457Z,18.96
2019-02-27T16:50:48.910Z,18.96
2019-02-27T16:51:48.888Z,19.66
2019-02-27T16:52:48.877Z,20.06
2019-02-27T16:53:52.366Z,20.37
2019-02-27T16:54:50.669Z,20.26
2019-02-27T16:55:48.845Z,20.48
2019-02-27T16:56:50.882Z,20.48
2019-02-27T16:57:48.824Z,21.28
2019-02-27T16:58:48.814Z,21.48
2019-02-27T16:59:48.814Z,21.78
2019-02-27T17:00:48.791Z,20.39
2019-02-27T17:01:48.782Z,21.19
2019-02-27T17:02:48.772Z,20.78
2019-02-27T17:03:59.265Z,20.28
2019-02-27T17:04:49.760Z,20.07
2019-02-27T17:05:49.804Z,19.68
2019-02-27T17:06:49.204Z,19.78
2019-02-27T17:07:48.720Z,20.47
2019-02-27T17:08:48.709Z,20.28
2019-02-27T17:09:48.710Z,20.79
2019-02-27T17:10:51.612Z,20.09
2019-02-27T17:11:48.678Z,21.09
2019-02-27T17:12:48.667Z,21.09
2019-02-27T17:13:49.433Z,21.30
2019-02-27T17:14:48.854Z,20.90
2019-02-27T17:15:48.634Z,21.50
2019-02-27T17:16:48.623Z,21.30
2019-02-27T17:17:50.551Z,21.31
2019-02-27T17:18:48.601Z,21.01
2019-02-27T17:19:48.602Z,20.92
2019-02-27T17:20:48.585Z,21.31
2019-02-27T17:21:48.569Z,21.03
2019-02-27T17:22:48.563Z,22.23
2019-02-27T17:23:48.547Z,22.34
2019-02-27T17:24:48.557Z,22.54
2019-02-27T17:25:48.526Z,22.85
2019-02-27T17:26:48.525Z,22.87
2019-02-27T17:27:50.935Z,23.57
2019-02-27T17:28:48.772Z,23.79
2019-02-27T17:29:48.494Z,24.08
2019-02-27T17:30:48.476Z,24.00
2019-02-27T17:31:49.517Z,23.60
2019-02-27T17:32:48.453Z,22.89
2019-02-27T17:33:48.441Z,23.71
2019-02-27T17:34:48.444Z,23.61
2019-02-27T17:35:48.419Z,23.60
2019-02-27T17:36:48.414Z,22.99
2019-02-27T17:37:48.399Z,23.50
2019-02-27T17:38:50.453Z,23.72
2019-02-27T17:39:48.422Z,23.50
2019-02-27T17:40:48.372Z,23.62
2019-02-27T17:41:48.355Z,23.72
2019-02-27T17:42:52.998Z,23.52
2019-02-27T17:43:51.562Z,23.62
2019-02-27T17:44:48.323Z,23.62
2019-02-27T17:45:48.315Z,23.50
2019-02-27T17:46:48.307Z,23.71
2019-02-27T17:47:48.290Z,23.41
2019-02-27T17:48:48.279Z,23.81
2019-02-27T17:49:48.268Z,23.61
2019-02-27T17:50:48.263Z,23.62
2019-02-27T17:51:49.588Z,23.72
2019-02-27T17:52:48.919Z,23.72
2019-02-27T17:53:48.224Z,23.72
2019-02-27T17:54:48.216Z,23.72
2019-02-27T17:55:48.206Z,23.82
2019-02-27T17:56:49.976Z,23.93
2019-02-27T17:57:48.207Z,23.73
2019-02-27T17:58:48.173Z,24.35
2019-02-27T17:59:48.165Z,24.24
2019-02-27T18:00:51.068Z,23.84
2019-02-27T18:01:48.141Z,24.05
2019-02-27T18:02:48.132Z,24.66
2019-02-27T18:03:48.120Z,24.76
2019-02-27T18:04:51.948Z,24.86
2019-02-27T18:05:49.099Z,24.57
2019-02-27T18:06:48.089Z,24.87
2019-02-27T18:07:48.084Z,24.58
2019-02-27T18:08:51.584Z,25.29
2019-02-27T18:09:48.054Z,24.78
2019-02-27T18:10:48.047Z,24.88
2019-02-27T18:11:49.440Z,25.30
2019-02-27T18:12:48.023Z,25.90
2019-02-27T18:13:48.013Z,24.80
2019-02-27T18:14:48.000Z,25.31
2019-02-27T18:15:48.003Z,25.92
2019-02-27T18:16:47.979Z,26.03
2019-02-27T18:17:47.968Z,25.32
2019-02-27T18:18:47.956Z,26.34
2019-02-27T18:19:50.262Z,25.94
2019-02-27T18:20:47.939Z,26.45
2019-02-27T18:21:47.926Z,25.54
2019-02-27T18:22:49.578Z,25.63
2019-02-27T18:23:48.052Z,24.43
2019-02-27T18:24:47.902Z,25.15
2019-02-27T18:25:47.928Z,25.75
2019-02-27T18:26:51.135Z,25.75
2019-02-27T18:27:48.135Z,26.87
2019-02-27T18:28:47.848Z,26.87
2019-02-27T18:29:47.845Z,26.27
2019-02-27T18:31:08.825Z,26.99
2019-02-27T18:31:47.820Z,26.79
2019-02-27T18:32:47.821Z,27.90
2019-02-27T18:33:50.169Z,27.71
2019-02-27T18:34:47.811Z,27.20
2019-02-27T18:35:47.847Z,26.80
2019-02-27T18:36:47.765Z,27.00
2019-02-27T18:37:53.276Z,26.59
2019-02-27T18:38:49.359Z,27.00
2019-02-27T18:39:47.731Z,26.70
2019-02-27T18:40:47.733Z,26.50
2019-02-27T18:41:47.710Z,26.70
2019-02-27T18:42:47.711Z,26.71
2019-02-27T18:43:47.698Z,27.22
2019-02-27T18:44:47.692Z,26.40
2019-02-27T18:45:48.206Z,26.72
2019-02-27T18:46:47.661Z,26.91
2019-02-27T18:47:47.644Z,27.63
2019-02-27T18:48:47.638Z,28.04
2019-02-27T18:49:49.089Z,27.44
2019-02-27T18:50:47.630Z,27.44
2019-02-27T18:51:47.616Z,28.27
2019-02-27T18:52:47.592Z,28.16
2019-02-27T18:53:48.512Z,28.57
2019-02-27T18:54:47.618Z,28.88
2019-02-27T18:55:47.558Z,28.67
2019-02-27T18:56:49.463Z,28.69
2019-02-27T18:57:47.700Z,28.99
2019-02-27T18:58:47.527Z,29.39
2019-02-27T18:59:47.515Z,29.19
2019-02-27T19:00:47.510Z,30.00
2019-02-27T19:01:47.529Z,29.21
2019-02-27T19:02:47.484Z,29.71
2019-02-27T19:03:47.473Z,29.21
2019-02-27T19:04:47.463Z,29.21
2019-02-27T19:05:47.451Z,29.51
2019-02-27T19:06:47.453Z,29.93
2019-02-27T19:07:47.436Z,29.32
2019-02-27T19:08:47.425Z,30.04
2019-02-27T19:09:47.408Z,29.85
2019-02-27T19:10:47.396Z,29.94
2019-02-27T19:11:50.894Z,30.47
2019-02-27T19:12:47.379Z,32.09
2019-02-27T19:13:47.367Z,31.40
2019-02-27T19:14:47.352Z,31.60
2019-02-27T19:15:47.350Z,30.99
2019-02-27T19:16:47.353Z,30.89
2019-02-27T19:17:47.321Z,31.80
2019-02-27T19:18:47.312Z,31.62
2019-02-27T19:19:48.975Z,32.23
2019-02-27T19:20:47.298Z,32.12
2019-02-27T19:21:47.288Z,32.32
2019-02-27T19:22:47.266Z,32.02
2019-02-27T19:23:49.529Z,32.32
2019-02-27T19:24:48.247Z,32.14
2019-02-27T19:25:47.244Z,32.32
2019-02-27T19:26:49.408Z,32.23
2019-02-27T19:27:49.835Z,32.32
2019-02-27T19:28:47.211Z,32.02
2019-02-27T19:29:47.196Z,32.53
2019-02-27T19:30:47.189Z,32.93
2019-02-27T19:31:48.313Z,32.92
2019-02-27T19:32:47.170Z,32.93
2019-02-27T19:33:47.153Z,32.73
2019-02-27T19:34:48.043Z,32.83
2019-02-27T19:35:47.130Z,32.32
2019-02-27T19:36:47.121Z,33.24
2019-02-27T19:37:47.121Z,33.15
2019-02-27T19:38:47.540Z,34.17
2019-02-27T19:39:47.086Z,34.29
2019-02-27T19:40:47.075Z,34.31
2019-02-27T19:41:47.072Z,34.71
2019-02-27T19:42:47.659Z,34.73
2019-02-27T19:43:47.046Z,35.75
2019-02-27T19:44:47.040Z,35.44
2019-02-27T19:45:47.048Z,35.44
2019-02-27T19:46:47.882Z,35.34
2019-02-27T19:47:49.676Z,34.53
2019-02-27T19:48:47.994Z,34.73
2019-02-27T19:49:47.003Z,34.83
2019-02-27T19:50:46.977Z,34.83
2019-02-27T19:51:46.962Z,34.73
2019-02-27T19:52:46.955Z,35.64
2019-02-27T19:53:46.933Z,36.25
2019-02-27T19:54:51.746Z,35.64
2019-02-27T19:55:47.911Z,36.46
2019-02-27T19:56:46.903Z,35.77
2019-02-27T19:57:46.906Z,36.90
2019-02-27T19:58:48.279Z,37.41
2019-02-27T19:59:46.882Z,37.43
2019-02-27T20:00:48.753Z,38.26
2019-02-27T20:01:49.147Z,37.74
2019-02-27T20:02:46.869Z,37.12
2019-02-27T20:03:46.923Z,37.02
2019-02-27T20:04:46.820Z,37.53
2019-02-27T20:05:46.806Z,37.33
2019-02-27T20:06:46.807Z,37.02
2019-02-27T20:07:46.799Z,37.02
2019-02-27T20:08:46.775Z,38.37
2019-02-27T20:09:46.763Z,37.85
2019-02-27T20:10:46.750Z,38.06
2019-02-27T20:11:46.741Z,38.06
2019-02-27T20:12:47.759Z,37.75
2019-02-27T20:13:47.720Z,38.37
2019-02-27T20:14:46.708Z,38.37
2019-02-27T20:15:46.705Z,38.16
2019-02-27T20:16:46.689Z,38.67
2019-02-27T20:17:46.691Z,38.69
2019-02-27T20:18:54.593Z,38.28
2019-02-27T20:19:47.659Z,38.48
2019-02-27T20:20:46.645Z,39.10
2019-02-27T20:21:46.633Z,38.59
2019-02-27T20:22:46.633Z,39.00
2019-02-27T20:23:46.613Z,38.69
2019-02-27T20:24:46.620Z,38.69
2019-02-27T20:25:46.591Z,38.79
2019-02-27T20:26:46.643Z,38.79
2019-02-27T20:27:46.587Z,39.22
2019-02-27T20:28:46.568Z,38.50
2019-02-27T20:29:46.547Z,39.12
2019-02-27T20:30:46.544Z,39.12
2019-02-27T20:31:46.529Z,38.71
2019-02-27T20:32:46.529Z,38.60
2019-02-27T20:33:46.507Z,38.71
2019-02-27T20:34:46.661Z,38.83
2019-02-27T20:35:46.488Z,39.03
2019-02-27T20:36:46.471Z,39.44
2019-02-27T20:37:46.476Z,39.75
2019-02-27T20:38:47.459Z,39.75
2019-02-27T20:39:46.441Z,39.54
2019-02-27T20:40:46.430Z,39.14
2019-02-27T20:41:46.432Z,38.93
2019-02-27T20:42:49.470Z,38.64
2019-02-27T20:43:46.396Z,38.83
2019-02-27T20:44:46.399Z,38.93
2019-02-27T20:45:46.382Z,38.62
2019-02-27T20:46:49.471Z,38.83
2019-02-27T20:47:46.371Z,38.62
2019-02-27T20:48:46.350Z,38.95
2019-02-27T20:49:47.881Z,38.75
2019-02-27T20:50:46.323Z,38.64
2019-02-27T20:51:46.312Z,38.85
2019-02-27T20:52:49.073Z,38.85
2019-02-27T20:53:46.295Z,39.78
2019-02-27T20:54:46.285Z,38.76
2019-02-27T20:55:46.269Z,39.07
2019-02-27T20:56:55.190Z,39.15
2019-02-27T20:57:47.291Z,38.96
2019-02-27T20:58:51.151Z,38.96
2019-02-27T20:59:47.225Z,38.56
2019-02-27T21:00:46.222Z,39.28
2019-02-27T21:01:47.330Z,39.07
2019-02-27T21:02:46.199Z,38.96
2019-02-27T21:03:46.185Z,38.76
2019-02-27T21:04:46.171Z,39.69
2019-02-27T21:05:46.170Z,39.09
2019-02-27T21:06:47.870Z,40.52
2019-02-27T21:07:46.141Z,39.90
2019-02-27T21:08:46.152Z,39.09
2019-02-27T21:09:46.121Z,39.11
2019-02-27T21:10:46.120Z,40.23
2019-02-27T21:11:46.100Z,40.01
2019-02-27T21:12:53.921Z,39.62
2019-02-27T21:13:49.513Z,39.62
2019-02-27T21:14:46.064Z,39.82
2019-02-27T21:15:46.065Z,39.51
2019-02-27T21:16:46.050Z,40.84
2019-02-27T21:17:46.041Z,40.44
2019-02-27T21:18:46.062Z,40.86
2019-02-27T21:19:46.036Z,40.97
2019-02-27T21:20:46.230Z,40.86
2019-02-27T21:21:45.989Z,41.07
2019-02-27T21:22:45.989Z,41.48
2019-02-27T21:23:45.972Z,40.86
2019-02-27T21:24:46.058Z,41.07
2019-02-27T21:25:48.775Z,40.86
2019-02-27T21:26:45.954Z,40.35
2019-02-27T21:27:45.926Z,40.05
2019-02-27T21:28:45.926Z,40.25